createdAt,value
2022-11-26T00:00:15.032Z,96520.47
2022-11-26T00:01:20.445Z,96519.66
2022-11-26T00:02:24.839Z,96521.59
2022-11-26T00:03:28.151Z,96520.81
2022-11-26T00:04:30.098Z,96522.78
2022-11-26T00:05:33.587Z,96519.25
2022-11-26T00:06:38.693Z,96514.63
2022-11-26T00:07:43.319Z,96518.09
2022-11-26T00:08:45.296Z,96517.34
2022-11-26T00:09:48.385Z,96529.34
2022-11-26T00:10:53.600Z,96514.97
2022-11-26T00:11:56.916Z,96518.47
2022-11-26T00:12:59.820Z,96519.63
2022-11-26T00:14:01.780Z,96521.59
2022-11-26T00:15:16.201Z,96527.78
2022-11-26T00:16:39.129Z,96520.00
2022-11-26T00:18:02.046Z,96521.94
2022-11-26T00:19:04.738Z,96529.31
2022-11-26T00:20:09.123Z,96529.31
2022-11-26T00:21:18.477Z,96538.25
2022-11-26T00:22:24.319Z,96531.22
2022-11-26T00:23:29.416Z,96539.38
2022-11-26T00:24:31.440Z,96535.13
2022-11-26T00:25:40.612Z,96537.84
2022-11-26T00:26:42.527Z,96543.25
2022-11-26T00:27:47.271Z,96543.25
2022-11-26T00:28:51.924Z,96544.03
2022-11-26T00:29:55.716Z,96537.06
2022-11-26T00:30:59.635Z,96537.84
2022-11-26T00:32:02.728Z,96537.84
2022-11-26T00:33:04.699Z,96543.25
2022-11-26T00:34:07.636Z,96544.44
2022-11-26T00:35:09.586Z,96543.25
2022-11-26T00:36:21.989Z,96542.50
2022-11-26T00:37:27.488Z,96535.47
2022-11-26T00:38:32.025Z,96537.06
2022-11-26T00:39:33.925Z,96543.25
2022-11-26T00:40:36.807Z,96539.00
2022-11-26T00:41:39.597Z,96548.28
2022-11-26T00:42:42.452Z,96539.34
2022-11-26T00:43:46.320Z,96549.06
2022-11-26T00:44:49.378Z,96544.44
2022-11-26T00:45:51.511Z,96560.72
2022-11-26T00:46:54.669Z,96550.22
2022-11-26T00:47:57.517Z,96556.44
2022-11-26T00:49:00.401Z,96560.31
2022-11-26T00:50:02.227Z,96555.66
2022-11-26T00:51:05.254Z,96552.16
2022-11-26T00:52:23.826Z,96561.09
2022-11-26T00:53:27.815Z,96563.81
2022-11-26T00:54:29.846Z,96567.28
2022-11-26T00:55:35.494Z,96562.22
2022-11-26T00:56:38.808Z,96564.16
2022-11-26T00:57:41.779Z,96569.22
2022-11-26T00:58:46.154Z,96566.88
2022-11-26T00:59:49.008Z,96566.50
2022-11-26T01:00:51.896Z,96568.47
2022-11-26T01:01:54.854Z,96565.75
2022-11-26T01:02:57.090Z,96564.94
2022-11-26T01:04:00.137Z,96569.59
2022-11-26T01:05:01.983Z,96573.09
2022-11-26T01:06:04.931Z,96568.47
2022-11-26T01:07:09.748Z,96574.25
2022-11-26T01:08:20.956Z,96575.03
2022-11-26T01:09:23.205Z,96572.31
2022-11-26T01:10:28.468Z,96575.03
2022-11-26T01:11:30.292Z,96575.03
2022-11-26T01:12:33.133Z,96575.03
2022-11-26T01:13:35.061Z,96581.63
2022-11-26T01:14:39.667Z,96573.47
2022-11-26T01:15:41.864Z,96572.69
2022-11-26T01:16:46.895Z,96577.31
2022-11-26T01:17:49.140Z,96578.13
2022-11-26T01:18:54.403Z,96582.00
2022-11-26T01:19:56.269Z,96581.22
2022-11-26T01:20:59.183Z,96576.56
2022-11-26T01:22:01.067Z,96583.16
2022-11-26T01:23:04.172Z,96589.34
2022-11-26T01:24:06.388Z,96585.88
2022-11-26T01:25:09.575Z,96583.16
2022-11-26T01:26:17.160Z,96590.50
2022-11-26T01:27:21.779Z,96592.44
2022-11-26T01:28:23.626Z,96588.94
2022-11-26T01:29:26.489Z,96591.31
2022-11-26T01:30:32.391Z,96596.72
2022-11-26T01:31:35.367Z,96590.50
2022-11-26T01:32:37.295Z,96595.94
2022-11-26T01:33:40.206Z,96597.88
2022-11-26T01:34:42.132Z,96594.38
2022-11-26T01:35:45.044Z,96595.94
2022-11-26T01:36:47.011Z,96595.16
2022-11-26T01:37:50.220Z,96590.50
2022-11-26T01:38:52.917Z,96597.09
2022-11-26T01:39:55.878Z,96594.38
2022-11-26T01:41:10.064Z,96597.88
2022-11-26T01:42:26.370Z,96594.38
2022-11-26T01:43:29.628Z,96602.53
2022-11-26T01:44:34.264Z,96605.25
2022-11-26T01:45:37.644Z,96606.75
2022-11-26T01:46:41.210Z,96599.03
2022-11-26T01:47:43.131Z,96599.38
2022-11-26T01:48:47.916Z,96606.75
2022-11-26T01:50:46.877Z,96604.81
2022-11-26T01:51:55.605Z,96612.97
2022-11-26T01:53:01.022Z,96611.41
2022-11-26T01:54:04.334Z,96604.81
2022-11-26T01:55:10.555Z,96612.97
2022-11-26T01:56:19.276Z,96610.25
2022-11-26T01:57:25.305Z,96617.66
2022-11-26T01:58:38.305Z,96613.75
2022-11-26T01:59:44.588Z,96618.03
2022-11-26T02:00:49.026Z,96616.09
2022-11-26T02:01:53.820Z,96618.81
2022-11-26T02:02:55.931Z,96621.53
2022-11-26T02:04:04.681Z,96623.09
2022-11-26T02:05:11.393Z,96617.66
2022-11-26T02:06:18.758Z,96612.22
2022-11-26T02:07:20.708Z,96619.59
2022-11-26T02:08:26.108Z,96622.31
2022-11-26T02:09:29.639Z,96614.94
2022-11-26T02:10:31.635Z,96614.94
2022-11-26T02:11:34.961Z,96616.09
2022-11-26T02:12:37.995Z,96616.09
2022-11-26T02:13:41.170Z,96621.53
2022-11-26T02:14:44.313Z,96622.31
2022-11-26T02:15:56.186Z,96623.88
2022-11-26T02:17:17.532Z,96628.50
2022-11-26T02:18:22.198Z,96623.88
2022-11-26T02:19:51.283Z,96623.88
2022-11-26T02:21:01.668Z,96624.25
2022-11-26T02:22:14.057Z,96628.50
2022-11-26T02:24:01.707Z,96623.09
2022-11-26T02:25:15.873Z,96636.31
2022-11-26T02:26:38.611Z,96628.94
2022-11-26T02:28:16.428Z,96632.03
2022-11-26T02:29:26.228Z,96630.09
2022-11-26T02:30:34.980Z,96630.88
2022-11-26T02:31:41.987Z,96627.03
2022-11-26T02:32:54.743Z,96633.22
2022-11-26T02:34:01.618Z,96624.31
2022-11-26T02:35:10.942Z,96637.06
2022-11-26T02:36:19.257Z,96635.94
2022-11-26T02:37:26.769Z,96635.94
2022-11-26T02:38:30.530Z,96629.72
2022-11-26T02:39:33.437Z,96627.78
2022-11-26T02:40:35.463Z,96626.22
2022-11-26T02:41:43.537Z,96634.00
2022-11-26T02:42:46.563Z,96640.97
2022-11-26T02:43:48.920Z,96629.34
2022-11-26T02:44:52.422Z,96634.78
2022-11-26T02:46:02.659Z,96636.34
2022-11-26T02:47:08.566Z,96631.69
2022-11-26T02:48:19.455Z,96635.19
2022-11-26T02:49:22.666Z,96632.47
2022-11-26T02:50:30.611Z,96637.13
2022-11-26T02:51:35.001Z,96637.91
2022-11-26T02:52:40.958Z,96635.19
2022-11-26T02:53:44.253Z,96632.47
2022-11-26T02:54:50.097Z,96632.47
2022-11-26T02:55:57.998Z,96639.84
2022-11-26T02:57:03.144Z,96635.56
2022-11-26T02:58:05.901Z,96640.97
2022-11-26T02:59:09.064Z,96636.34
2022-11-26T03:00:12.375Z,96639.06
2022-11-26T03:01:21.886Z,96637.91
2022-11-26T03:02:28.607Z,96641.78
2022-11-26T03:03:36.843Z,96636.34
2022-11-26T03:04:42.726Z,96644.50
2022-11-26T03:05:45.811Z,96641.78
2022-11-26T03:06:48.422Z,96644.50
2022-11-26T03:07:54.172Z,96643.69
2022-11-26T03:08:56.493Z,96640.97
2022-11-26T03:10:02.131Z,96648.78
2022-11-26T03:11:05.818Z,96645.63
2022-11-26T03:12:07.948Z,96651.84
2022-11-26T03:13:10.923Z,96642.94
2022-11-26T03:14:12.770Z,96647.22
2022-11-26T03:15:15.673Z,96653.44
2022-11-26T03:16:19.086Z,96649.13
2022-11-26T03:17:22.381Z,96647.22
2022-11-26T03:18:24.327Z,96652.66
2022-11-26T03:19:27.303Z,96651.84
2022-11-26T03:20:29.214Z,96651.84
2022-11-26T03:21:33.092Z,96652.66
2022-11-26T03:22:34.932Z,96651.84
2022-11-26T03:23:37.746Z,96658.09
2022-11-26T03:24:40.353Z,96652.66
2022-11-26T03:25:43.417Z,96656.50
2022-11-26T03:26:45.335Z,96652.66
2022-11-26T03:27:48.228Z,96658.88
2022-11-26T03:28:50.254Z,96659.22
2022-11-26T03:29:53.124Z,96661.94
2022-11-26T03:30:55.216Z,96655.72
2022-11-26T03:32:00.128Z,96655.72
2022-11-26T03:33:02.064Z,96654.94
2022-11-26T03:34:04.968Z,96654.94
2022-11-26T03:35:07.665Z,96655.72
2022-11-26T03:36:10.729Z,96652.25
2022-11-26T03:37:12.933Z,96654.19
2022-11-26T03:38:15.863Z,96650.66
2022-11-26T03:39:18.016Z,96653.38
2022-11-26T03:40:21.100Z,96658.81
2022-11-26T03:41:23.438Z,96663.47
2022-11-26T03:42:26.443Z,96668.13
2022-11-26T03:43:28.672Z,96675.09
2022-11-26T03:44:31.509Z,96673.53
2022-11-26T03:45:33.749Z,96672.78
2022-11-26T03:46:36.681Z,96673.53
2022-11-26T03:47:39.932Z,96665.41
2022-11-26T03:48:42.804Z,96670.84
2022-11-26T03:49:44.657Z,96671.97
2022-11-26T03:50:47.605Z,96674.69
2022-11-26T03:51:49.473Z,96671.97
2022-11-26T03:52:52.665Z,96678.19
2022-11-26T03:53:54.575Z,96676.63
2022-11-26T03:54:57.470Z,96671.19
2022-11-26T03:55:59.450Z,96680.13
2022-11-26T03:57:02.302Z,96687.91
2022-11-26T03:58:04.256Z,96684.41
2022-11-26T03:59:07.688Z,96681.69
2022-11-26T04:00:10.539Z,96688.69
2022-11-26T04:01:14.828Z,96685.97
2022-11-26T04:02:16.750Z,96681.69
2022-11-26T04:03:21.105Z,96690.63
2022-11-26T04:04:23.066Z,96694.09
2022-11-26T04:05:26.018Z,96690.63
2022-11-26T04:06:27.959Z,96696.81
2022-11-26T04:07:30.861Z,96691.41
2022-11-26T04:08:32.983Z,96691.41
2022-11-26T04:09:35.892Z,96692.56
2022-11-26T04:10:37.796Z,96694.91
2022-11-26T04:11:40.694Z,96687.91
2022-11-26T04:12:42.611Z,96691.41
2022-11-26T04:13:45.503Z,96699.53
2022-11-26T04:14:47.367Z,96698.41
2022-11-26T04:15:50.355Z,96697.63
2022-11-26T04:16:52.336Z,96692.19
2022-11-26T04:17:55.223Z,96694.09
2022-11-26T04:18:58.527Z,96696.81
2022-11-26T04:20:01.432Z,96702.25
2022-11-26T04:21:06.024Z,96698.00
2022-11-26T04:22:08.964Z,96700.69
2022-11-26T04:23:10.983Z,96694.09
2022-11-26T04:24:14.033Z,96691.41
2022-11-26T04:25:16.007Z,96696.06
2022-11-26T04:26:18.940Z,96693.34
2022-11-26T04:27:21.142Z,96698.41
2022-11-26T04:28:24.014Z,96709.28
2022-11-26T04:29:25.819Z,96702.25
2022-11-26T04:30:29.997Z,96706.56
2022-11-26T04:31:32.149Z,96712.00
2022-11-26T04:32:35.276Z,96713.94
2022-11-26T04:33:37.256Z,96713.94
2022-11-26T04:34:41.550Z,96715.84
2022-11-26T04:35:43.873Z,96718.56
2022-11-26T04:36:46.755Z,96715.84
2022-11-26T04:37:48.739Z,96725.56
2022-11-26T04:38:51.687Z,96725.56
2022-11-26T04:39:53.697Z,96730.22
2022-11-26T04:40:56.844Z,96731.78
2022-11-26T04:41:58.727Z,96732.94
2022-11-26T04:43:01.813Z,96728.28
2022-11-26T04:44:04.302Z,96728.28
2022-11-26T04:45:08.538Z,96740.28
2022-11-26T04:46:10.524Z,96740.28
2022-11-26T04:47:13.455Z,96740.28
2022-11-26T04:48:15.324Z,96737.56
2022-11-26T04:49:18.252Z,96738.38
2022-11-26T04:50:21.561Z,96737.56
2022-11-26T04:51:24.399Z,96734.06
2022-11-26T04:52:26.245Z,96740.28
2022-11-26T04:53:29.183Z,96740.28
2022-11-26T04:54:31.090Z,96741.09
2022-11-26T04:55:33.933Z,96743.00
2022-11-26T04:56:35.805Z,96737.56
2022-11-26T04:57:38.692Z,96744.16
2022-11-26T04:58:40.619Z,96744.94
2022-11-26T04:59:43.634Z,96745.72
2022-11-26T05:00:50.639Z,96751.16
2022-11-26T05:01:54.843Z,96738.72
2022-11-26T05:02:56.830Z,96744.16
2022-11-26T05:03:59.754Z,96745.72
2022-11-26T05:05:01.901Z,96755.78
2022-11-26T05:06:06.873Z,96746.88
2022-11-26T05:07:08.879Z,96757.75
2022-11-26T05:08:11.893Z,96752.31
2022-11-26T05:09:13.843Z,96750.38
2022-11-26T05:10:16.800Z,96758.50
2022-11-26T05:11:19.808Z,96756.56
2022-11-26T05:12:21.721Z,96760.44
2022-11-26T05:13:24.845Z,96766.31
2022-11-26T05:14:26.754Z,96761.22
2022-11-26T05:15:29.773Z,96761.22
2022-11-26T05:16:31.684Z,96766.66
2022-11-26T05:17:34.693Z,96772.88
2022-11-26T05:18:36.653Z,96776.41
2022-11-26T05:19:39.550Z,96772.88
2022-11-26T05:20:41.421Z,96769.03
2022-11-26T05:21:45.782Z,96770.97
2022-11-26T05:22:47.752Z,96770.16
2022-11-26T05:23:50.695Z,96767.44
2022-11-26T05:24:52.646Z,96772.09
2022-11-26T05:25:55.558Z,96777.16
2022-11-26T05:26:58.560Z,96778.31
2022-11-26T05:28:00.503Z,96772.88
2022-11-26T05:29:03.549Z,96779.88
2022-11-26T05:30:07.424Z,96776.75
2022-11-26T05:31:10.280Z,96782.19
2022-11-26T05:32:12.242Z,96779.47
2022-11-26T05:33:15.256Z,96787.63
2022-11-26T05:34:17.351Z,96787.19
2022-11-26T05:35:20.848Z,96786.03
2022-11-26T05:36:23.059Z,96783.31
2022-11-26T05:37:27.442Z,96786.84
2022-11-26T05:38:29.521Z,96786.03
2022-11-26T05:39:32.386Z,96788.75
2022-11-26T05:40:34.373Z,96796.13
2022-11-26T05:41:37.378Z,96802.31
2022-11-26T05:42:39.337Z,96793.41
2022-11-26T05:43:42.301Z,96794.19
2022-11-26T05:44:44.222Z,96796.88
2022-11-26T05:45:47.271Z,96790.69
2022-11-26T05:46:49.253Z,96794.56
2022-11-26T05:47:52.159Z,96800.78
2022-11-26T05:48:54.108Z,96797.28
2022-11-26T05:49:57.134Z,96800.00
2022-11-26T05:50:59.331Z,96792.19
2022-11-26T05:52:02.288Z,96800.00
2022-11-26T05:53:06.025Z,96801.50
2022-11-26T05:54:08.885Z,96800.69
2022-11-26T05:55:11.527Z,96790.22
2022-11-26T05:56:14.509Z,96799.16
2022-11-26T05:57:16.599Z,96794.84
2022-11-26T05:58:19.526Z,96798.38
2022-11-26T05:59:21.367Z,96795.66
2022-11-26T06:00:24.503Z,96799.16
2022-11-26T06:01:26.478Z,96803.81
2022-11-26T06:02:29.576Z,96798.38
2022-11-26T06:03:31.546Z,96806.94
2022-11-26T06:04:34.620Z,96794.50
2022-11-26T06:05:36.639Z,96801.88
2022-11-26T06:06:39.532Z,96801.41
2022-11-26T06:07:44.507Z,96800.63
2022-11-26T06:08:49.531Z,96807.19
2022-11-26T06:09:51.450Z,96809.91
2022-11-26T06:10:54.985Z,96808.34
2022-11-26T06:11:56.867Z,96808.34
2022-11-26T06:12:59.845Z,96803.72
2022-11-26T06:14:01.782Z,96809.13
2022-11-26T06:15:05.403Z,96808.34
2022-11-26T06:16:08.232Z,96816.50
2022-11-26T06:17:11.378Z,96813.78
2022-11-26T06:18:13.321Z,96814.22
2022-11-26T06:19:16.300Z,96813.06
2022-11-26T06:20:18.418Z,96814.22
2022-11-26T06:21:21.365Z,96816.16
2022-11-26T06:22:23.259Z,96823.09
2022-11-26T06:23:26.196Z,96816.09
2022-11-26T06:24:29.457Z,96820.75
2022-11-26T06:25:32.847Z,96822.69
2022-11-26T06:26:34.745Z,96820.75
2022-11-26T06:27:38.172Z,96821.50
2022-11-26T06:28:40.507Z,96828.53
2022-11-26T06:29:43.460Z,96817.66
2022-11-26T06:30:45.445Z,96830.84
2022-11-26T06:31:48.417Z,96820.00
2022-11-26T06:32:50.542Z,96818.06
2022-11-26T06:33:55.155Z,96816.94
2022-11-26T06:34:57.439Z,96819.66
2022-11-26T06:36:01.368Z,96816.94
2022-11-26T06:37:04.382Z,96823.91
2022-11-26T06:38:06.375Z,96824.72
2022-11-26T06:39:10.381Z,96820.41
2022-11-26T06:40:17.855Z,96823.91
2022-11-26T06:41:20.840Z,96825.53
2022-11-26T06:42:22.928Z,96836.38
2022-11-26T06:43:25.840Z,96835.59
2022-11-26T06:44:27.820Z,96836.38
2022-11-26T06:45:31.052Z,96837.16
2022-11-26T06:46:34.535Z,96838.72
2022-11-26T06:47:37.453Z,96837.16
2022-11-26T06:48:40.320Z,96837.94
2022-11-26T06:49:43.477Z,96838.72
2022-11-26T06:50:45.466Z,96842.59
2022-11-26T06:51:48.424Z,96840.66
2022-11-26T06:52:51.945Z,96837.94
2022-11-26T06:53:55.048Z,96846.09
2022-11-26T06:54:56.926Z,96842.59
2022-11-26T06:56:02.480Z,96837.16
2022-11-26T06:57:04.424Z,96842.59
2022-11-26T06:58:07.412Z,96842.59
2022-11-26T06:59:09.380Z,96847.25
2022-11-26T07:00:13.498Z,96844.53
2022-11-26T07:01:17.398Z,96848.81
2022-11-26T07:02:20.540Z,96854.25
2022-11-26T07:03:25.462Z,96854.25
2022-11-26T07:04:30.086Z,96853.47
2022-11-26T07:05:34.102Z,96854.25
2022-11-26T07:06:37.043Z,96848.03
2022-11-26T07:07:39.319Z,96846.44
2022-11-26T07:08:42.223Z,96858.91
2022-11-26T07:09:44.217Z,96854.25
2022-11-26T07:10:49.147Z,96861.59
2022-11-26T07:11:52.701Z,96858.91
2022-11-26T07:12:55.618Z,96863.53
2022-11-26T07:13:57.660Z,96860.84
2022-11-26T07:15:00.561Z,96859.66
2022-11-26T07:16:02.885Z,96863.53
2022-11-26T07:17:05.828Z,96862.75
2022-11-26T07:18:07.700Z,96868.16
2022-11-26T07:19:14.331Z,96868.97
2022-11-26T07:20:16.333Z,96870.88
2022-11-26T07:21:20.437Z,96872.47
2022-11-26T07:22:22.443Z,96871.69
2022-11-26T07:23:25.358Z,96877.91
2022-11-26T07:24:27.299Z,96879.84
2022-11-26T07:25:30.501Z,96882.56
2022-11-26T07:26:32.544Z,96877.91
2022-11-26T07:27:36.809Z,96879.84
2022-11-26T07:28:39.028Z,96882.56
2022-11-26T07:29:42.003Z,96895.75
2022-11-26T07:30:44.054Z,96886.06
2022-11-26T07:31:47.045Z,96897.69
2022-11-26T07:32:48.987Z,96886.81
2022-11-26T07:33:55.163Z,96886.81
2022-11-26T07:34:57.142Z,96886.81
2022-11-26T07:36:22.356Z,96880.63
2022-11-26T07:37:45.342Z,96883.72
2022-11-26T07:38:54.650Z,96888.69
2022-11-26T07:39:57.636Z,96888.63
2022-11-26T07:41:03.949Z,96885.53
2022-11-26T07:42:06.970Z,96881.97
2022-11-26T07:43:10.405Z,96888.09
2022-11-26T07:44:14.465Z,96893.16
2022-11-26T07:45:17.443Z,96889.59
2022-11-26T07:46:22.995Z,96896.53
2022-11-26T07:47:25.309Z,96888.31
2022-11-26T07:48:28.204Z,96895.28
2022-11-26T07:49:30.324Z,96906.50
2022-11-26T07:50:33.237Z,96895.19
2022-11-26T07:51:36.874Z,96906.44
2022-11-26T07:52:38.833Z,96904.88
2022-11-26T07:53:41.718Z,96909.50
2022-11-26T07:54:44.316Z,96900.16
2022-11-26T07:55:49.852Z,96900.94
2022-11-26T07:56:51.671Z,96910.25
2022-11-26T07:57:54.745Z,96908.66
2022-11-26T07:58:58.165Z,96903.22
2022-11-26T08:00:01.075Z,96900.91
2022-11-26T08:01:10.138Z,96900.09
2022-11-26T08:02:15.687Z,96901.88
2022-11-26T08:03:17.650Z,96908.38
2022-11-26T08:04:20.520Z,96908.75
2022-11-26T08:05:22.497Z,96914.88
2022-11-26T08:06:27.611Z,96913.63
2022-11-26T08:07:29.794Z,96912.75
2022-11-26T08:08:35.101Z,96911.47
2022-11-26T08:09:38.006Z,96920.31
2022-11-26T08:10:39.974Z,96917.91
2022-11-26T08:11:42.881Z,96911.22
2022-11-26T08:12:45.595Z,96927.84
2022-11-26T08:13:49.125Z,96923.50
2022-11-26T08:14:52.367Z,96919.94
2022-11-26T08:15:55.413Z,96922.63
2022-11-26T08:16:57.523Z,96923.31
2022-11-26T08:18:00.446Z,96919.41
2022-11-26T08:19:06.047Z,96924.41
2022-11-26T08:20:08.777Z,96922.09
2022-11-26T08:21:11.882Z,96918.16
2022-11-26T08:22:14.753Z,96919.28
2022-11-26T08:23:16.649Z,96921.22
2022-11-26T08:24:20.960Z,96919.66
2022-11-26T08:25:22.946Z,96924.69
2022-11-26T08:26:35.823Z,96926.25
2022-11-26T08:27:41.477Z,96924.69
2022-11-26T08:28:43.564Z,96921.97
2022-11-26T08:29:46.421Z,96933.59
2022-11-26T08:30:49.891Z,96927.41
2022-11-26T08:31:52.841Z,96924.31
2022-11-26T08:32:54.744Z,96928.94
2022-11-26T08:33:59.001Z,96929.72
2022-11-26T08:35:01.087Z,96927.78
2022-11-26T08:36:08.278Z,96926.66
2022-11-26T08:37:10.457Z,96922.78
2022-11-26T08:38:13.639Z,96928.22
2022-11-26T08:39:18.985Z,96924.38
2022-11-26T08:40:20.911Z,96927.09
2022-11-26T08:41:24.745Z,96931.38
2022-11-26T08:42:27.607Z,96931.38
2022-11-26T08:43:51.342Z,96924.38
2022-11-26T08:44:52.424Z,96928.66
2022-11-26T08:45:56.839Z,96932.13
2022-11-26T08:46:59.860Z,96931.38
2022-11-26T08:48:01.781Z,96936.78
2022-11-26T08:49:05.612Z,96929.81
2022-11-26T08:50:08.648Z,96944.94
2022-11-26T08:51:13.343Z,96938.72
2022-11-26T08:52:16.534Z,96941.44
2022-11-26T08:53:18.450Z,96947.66
2022-11-26T08:54:21.392Z,96941.44
2022-11-26T08:55:26.908Z,96947.66
2022-11-26T08:56:29.963Z,96949.25
2022-11-26T08:57:33.068Z,96947.66
2022-11-26T08:58:37.236Z,96942.22
2022-11-26T08:59:40.169Z,96945.72
2022-11-26T09:00:42.623Z,96954.69
2022-11-26T09:01:46.967Z,96956.22
2022-11-26T09:02:48.920Z,96952.38
2022-11-26T09:03:53.288Z,96952.38
2022-11-26T09:04:55.162Z,96953.94
2022-11-26T09:06:01.993Z,96960.56
2022-11-26T09:07:04.990Z,96962.94
2022-11-26T09:08:06.893Z,96960.22
2022-11-26T09:09:13.771Z,96968.81
2022-11-26T09:10:17.051Z,96966.09
2022-11-26T09:11:19.021Z,96964.16
2022-11-26T09:12:21.909Z,96966.09
2022-11-26T09:13:24.044Z,96967.63
2022-11-26T09:14:28.649Z,96967.63
2022-11-26T09:15:30.617Z,96976.56
2022-11-26T09:16:34.129Z,96973.84
2022-11-26T09:17:38.448Z,96977.72
2022-11-26T09:18:40.275Z,96976.97
2022-11-26T09:19:43.115Z,96980.44
2022-11-26T09:20:44.936Z,96983.25
2022-11-26T09:21:48.427Z,96976.97
2022-11-26T09:22:50.307Z,96981.69
2022-11-26T09:23:53.183Z,96984.00
2022-11-26T09:24:56.091Z,96986.25
2022-11-26T09:25:58.073Z,96987.72
2022-11-26T09:27:07.287Z,96988.41
2022-11-26T09:28:10.869Z,96991.81
2022-11-26T09:29:14.343Z,96988.19
2022-11-26T09:30:17.369Z,96993.31
2022-11-26T09:31:20.235Z,96993.84
2022-11-26T09:32:27.101Z,96991.44
2022-11-26T09:33:34.274Z,97001.47
2022-11-26T09:34:37.798Z,96992.84
2022-11-26T09:35:40.017Z,96993.16
2022-11-26T09:36:43.356Z,96984.94
2022-11-26T09:37:51.409Z,96997.69
2022-11-26T09:38:55.249Z,96990.63
2022-11-26T09:39:57.185Z,96990.22
2022-11-26T09:41:11.042Z,96992.88
2022-11-26T09:42:24.415Z,96992.44
2022-11-26T09:43:31.880Z,96993.94
2022-11-26T09:45:05.544Z,96990.03
2022-11-26T09:46:10.279Z,96992.31
2022-11-26T09:47:18.014Z,96989.19
2022-11-26T09:48:24.461Z,97002.00
2022-11-26T09:49:30.681Z,96992.28
2022-11-26T09:50:35.440Z,97001.22
2022-11-26T09:51:38.108Z,96998.50
2022-11-26T09:52:45.539Z,96995.34
2022-11-26T09:53:51.215Z,97001.13
2022-11-26T09:55:01.606Z,96999.22
2022-11-26T09:56:09.220Z,96991.09
2022-11-26T09:57:21.914Z,97000.41
2022-11-26T09:58:29.606Z,96999.63
2022-11-26T09:59:35.848Z,96991.84
2022-11-26T10:00:41.209Z,96995.72
2022-11-26T10:01:43.222Z,96992.19
2022-11-26T10:02:46.175Z,96996.44
2022-11-26T10:03:49.585Z,96987.84
2022-11-26T10:04:52.941Z,96987.81
2022-11-26T10:06:01.593Z,96981.16
2022-11-26T10:07:12.151Z,96988.91
2022-11-26T10:08:36.066Z,96988.47
2022-11-26T10:10:01.968Z,96982.63
2022-11-26T10:11:11.887Z,96986.47
2022-11-26T10:12:27.938Z,96984.13
2022-11-26T10:13:41.201Z,96984.91
2022-11-26T10:14:54.334Z,96981.78
2022-11-26T10:16:06.013Z,96984.06
2022-11-26T10:17:23.141Z,96985.22
2022-11-26T10:18:38.570Z,96990.66
2022-11-26T10:19:53.279Z,96989.88
2022-11-26T10:21:11.590Z,96982.06
2022-11-26T10:22:22.391Z,96987.50
2022-11-26T10:23:32.522Z,96987.50
2022-11-26T10:24:39.489Z,96982.06
2022-11-26T10:25:46.991Z,96984.78
2022-11-26T10:26:50.668Z,96982.06
2022-11-26T10:27:56.029Z,96989.44
2022-11-26T10:29:13.164Z,96987.50
2022-11-26T10:30:19.973Z,96990.22
2022-11-26T10:31:25.157Z,96984.03
2022-11-26T10:32:36.146Z,96985.94
2022-11-26T10:33:46.161Z,96985.94
2022-11-26T10:34:52.273Z,96982.06
2022-11-26T10:35:55.232Z,96992.94
2022-11-26T10:36:59.499Z,96985.56
2022-11-26T10:38:01.314Z,96984.78
2022-11-26T10:39:04.985Z,96988.28
2022-11-26T10:40:20.715Z,96990.22
2022-11-26T10:41:24.284Z,96980.50
2022-11-26T10:42:27.169Z,96974.28
2022-11-26T10:43:32.255Z,96982.81
2022-11-26T10:44:40.427Z,96982.81
2022-11-26T10:45:44.615Z,96985.53
2022-11-26T10:46:47.565Z,96983.38
2022-11-26T10:47:49.940Z,96987.34
2022-11-26T10:48:52.818Z,96984.63
2022-11-26T10:49:58.383Z,96984.59
2022-11-26T10:51:04.316Z,96985.25
2022-11-26T10:52:09.800Z,96980.16
2022-11-26T10:53:22.107Z,96981.59
2022-11-26T10:54:28.146Z,96976.47
2022-11-26T10:55:34.877Z,96974.09
2022-11-26T10:56:42.637Z,96967.03
2022-11-26T10:57:50.211Z,96971.59
2022-11-26T10:58:54.254Z,96969.25
2022-11-26T10:59:56.271Z,96975.41
2022-11-26T11:01:04.650Z,96961.41
2022-11-26T11:02:27.466Z,96969.13
2022-11-26T11:03:59.812Z,96968.34
2022-11-26T11:04:57.866Z,96958.63
2022-11-26T11:06:35.693Z,96961.34
2022-11-26T11:07:44.142Z,96960.56
2022-11-26T11:08:47.296Z,96956.72
2022-11-26T11:10:04.064Z,96964.06
2022-11-26T11:11:06.045Z,96960.56
2022-11-26T11:12:17.806Z,96955.91
2022-11-26T11:13:20.702Z,96949.69
2022-11-26T11:14:28.601Z,96950.84
2022-11-26T11:15:35.464Z,96951.97
2022-11-26T11:16:40.586Z,96951.22
2022-11-26T11:17:43.509Z,96949.25
2022-11-26T11:18:52.410Z,96952.75
2022-11-26T11:19:54.440Z,96951.97
2022-11-26T11:21:01.015Z,96948.91
2022-11-26T11:22:04.300Z,96949.34
2022-11-26T11:23:21.312Z,96951.66
2022-11-26T11:24:28.129Z,96943.16
2022-11-26T11:25:32.618Z,96941.22
2022-11-26T11:26:42.677Z,96949.78
2022-11-26T11:27:44.799Z,96944.34
2022-11-26T11:28:50.124Z,96945.94
2022-11-26T11:29:52.254Z,96940.50
2022-11-26T11:31:06.299Z,96940.50
2022-11-26T11:32:33.203Z,96940.50
2022-11-26T11:33:36.546Z,96951.00
2022-11-26T11:34:41.187Z,96950.22
2022-11-26T11:35:44.410Z,96947.16
2022-11-26T11:36:59.067Z,96943.66
2022-11-26T11:38:02.347Z,96945.22
2022-11-26T11:39:06.850Z,96939.78
2022-11-26T11:40:17.956Z,96945.22
2022-11-26T11:41:31.885Z,96949.50
2022-11-26T11:42:33.771Z,96950.63
2022-11-26T11:43:38.064Z,96947.50
2022-11-26T11:44:46.080Z,96954.09
2022-11-26T11:45:58.047Z,96951.75
2022-11-26T11:47:28.875Z,96950.97
2022-11-26T11:48:43.379Z,96955.22
2022-11-26T11:49:56.424Z,96944.34
2022-11-26T11:51:07.628Z,96956.41
2022-11-26T11:52:20.466Z,96947.47
2022-11-26T11:53:36.527Z,96942.81
2022-11-26T11:54:56.790Z,96946.31
2022-11-26T11:56:17.672Z,96943.94
2022-11-26T11:57:32.824Z,96942.81
2022-11-26T11:58:50.945Z,96945.53
2022-11-26T12:00:13.252Z,96946.66
2022-11-26T12:01:29.125Z,96945.88
2022-11-26T12:02:53.021Z,96948.25
2022-11-26T12:04:10.373Z,96937.38
2022-11-26T12:05:33.371Z,96941.22
2022-11-26T12:06:47.378Z,96944.75
2022-11-26T12:07:58.994Z,96952.09
2022-11-26T12:09:10.815Z,96953.69
2022-11-26T12:10:19.921Z,96941.22
2022-11-26T12:11:35.421Z,96954.81
2022-11-26T12:12:44.393Z,96948.59
2022-11-26T12:13:53.297Z,96950.53
2022-11-26T12:15:04.417Z,96962.97
2022-11-26T12:16:09.679Z,96954.38
2022-11-26T12:17:16.412Z,96954.38
2022-11-26T12:18:26.394Z,96952.84
2022-11-26T12:19:37.962Z,96952.84
2022-11-26T12:20:44.949Z,96951.66
2022-11-26T12:21:55.626Z,96953.59
2022-11-26T12:23:08.071Z,96951.66
2022-11-26T12:24:21.281Z,96948.94
2022-11-26T12:25:35.363Z,96956.31
2022-11-26T12:26:42.795Z,96952.47
2022-11-26T12:27:48.885Z,96955.97
2022-11-26T12:28:57.546Z,96962.53
2022-11-26T12:30:04.933Z,96960.63
2022-11-26T12:31:10.842Z,96957.91
2022-11-26T12:32:17.433Z,96964.13
2022-11-26T12:33:25.525Z,96965.25
2022-11-26T12:34:33.443Z,96961.41
2022-11-26T12:35:43.401Z,96962.97
2022-11-26T12:36:53.090Z,96963.78
2022-11-26T12:38:00.345Z,96958.34
2022-11-26T12:39:06.016Z,96957.53
2022-11-26T12:40:20.531Z,96961.41
2022-11-26T12:41:29.808Z,96959.03
2022-11-26T12:42:42.111Z,96958.28
2022-11-26T12:43:49.248Z,96959.81
2022-11-26T12:44:54.485Z,96959.81
2022-11-26T12:46:01.836Z,96958.69
2022-11-26T12:47:14.112Z,96951.66
2022-11-26T12:48:27.792Z,96957.09